Decoded Metar for KUSE ( in ) (IATA:) | Meteo·Mobile Aviation Weather
aviador You're here:

KUSE Decoded Metar

in
Report Time2019-04-23 16:00:00
UTC Time2019-04-23 16:04:36
Flight Rules vfr VFR
Wind270° at 22 Gusting to 29 kt
W.Decomp.*RWY 27: 22.0 kt HW 0 kt LCW
RWY 18: 22.0 kt RCW
Visibility9999 m
Phenomena:N/A
Clouds:N/A
Expected CloudBase > 400 ft AGL from Temp-Dew spread
CeilingNone
Temp17°C
Dew Point16°C (94% RH)
AAT11.1°C
QNH1012 hPa
Raw Report
KUSE 231600Z AUTO 27022G29KT 10SM 17/16 A2988 RMK AO2=

Extra information for KUSE:More info

Social comments